CPA289 VHHH-EDDF
Flight info
| Callsign | CPA289 |
|---|---|
| Flight time | N/A |
| Altitude | 30100 |
| Route | BEKOL A461 SHL W22 TEPID W24 OSNOV G586 QP B330 ELKAL W179 WLY/K0935S0980 W179 IGNAK/K0937S0950 W179 WFX/K0933S0980 W179 OMBON W195 VIDEK/K0935S0950 W195 LAXAL/K0930S0980 W195 IDOPA W197 ANDIM B215 IBANO G470 AKLAS W192 FKG A368 SALMO/K0904S1040 A368 SARIN/K0896F340 N161 GASBI/N0489F360 N161 LEYLA T916 MATAL DCT TABAS DCT REBLO UM11 CRM UL746 ODERO DCT OPT DCT IRLOX DCT BALUX DCT TEKNO DCT ABETI DCT SUBEN DCT AKINI T161 DEBHI DEBHI1B |
| Aircraft | B77W/H-SDE1E2E3FGHIJ2J3J4J5M1RWXY/LB1D1 |
Departure
| Time | 2026-05-05 03:55 |
|---|---|
| Airport | Hong Kong International Airport (VHHH) |
Arrival
| Time | N/A |
|---|---|
| Airport | Frankfurt Main Airport (EDDF) |
| Time | Latitude | Longitude | Altitude | Speed | Heading |
|---|---|---|---|---|---|
| 2026-05-05 03:09 | 22.31013 | 113.92520 | 37 ft | 0 kts | 115° |
| 2026-05-05 03:39 | 22.31022 | 113.92500 | 34 ft | 4 kts | 115° |
| 2026-05-05 03:40 | 22.31034 | 113.92473 | 36 ft | 4 kts | 115° |
| 2026-05-05 03:40 | 22.31043 | 113.92453 | 36 ft | 4 kts | 136° |
| 2026-05-05 03:40 | 22.31062 | 113.92446 | 37 ft | 4 kts | 202° |
| 2026-05-05 03:40 | 22.31085 | 113.92458 | 36 ft | 4 kts | 206° |
| 2026-05-05 03:41 | 22.31100 | 113.92466 | 37 ft | 0 kts | 206° |
| 2026-05-05 03:45 | 22.31099 | 113.92465 | 37 ft | 3 kts | 206° |
| 2026-05-05 03:45 | 22.31094 | 113.92463 | 37 ft | 7 kts | 206° |
| 2026-05-05 03:46 | 22.31075 | 113.92453 | 37 ft | 5 kts | 206° |
| 2026-05-05 03:46 | 22.31046 | 113.92438 | 37 ft | 5 kts | 206° |
| 2026-05-05 03:46 | 22.31016 | 113.92422 | 37 ft | 5 kts | 206° |
| 2026-05-05 03:46 | 22.30985 | 113.92406 | 37 ft | 5 kts | 206° |
| 2026-05-05 03:47 | 22.30938 | 113.92381 | 37 ft | 10 kts | 206° |
| 2026-05-05 03:47 | 22.30862 | 113.92342 | 37 ft | 13 kts | 206° |
| 2026-05-05 03:47 | 22.30775 | 113.92339 | 37 ft | 13 kts | 161° |
| 2026-05-05 03:47 | 22.30705 | 113.92297 | 37 ft | 13 kts | 244° |
| 2026-05-05 03:48 | 22.30673 | 113.92205 | 37 ft | 13 kts | 251° |
| 2026-05-05 03:48 | 22.30644 | 113.92112 | 37 ft | 13 kts | 250° |
| 2026-05-05 03:48 | 22.30614 | 113.92019 | 37 ft | 13 kts | 251° |
| 2026-05-05 03:48 | 22.30584 | 113.91927 | 37 ft | 13 kts | 251° |
| 2026-05-05 03:49 | 22.30554 | 113.91833 | 37 ft | 13 kts | 251° |
| 2026-05-05 03:49 | 22.30525 | 113.91741 | 37 ft | 13 kts | 251° |
| 2026-05-05 03:49 | 22.30494 | 113.91648 | 37 ft | 14 kts | 250° |
| 2026-05-05 03:49 | 22.30461 | 113.91547 | 37 ft | 15 kts | 250° |
| 2026-05-05 03:50 | 22.30426 | 113.91437 | 37 ft | 16 kts | 251° |
| 2026-05-05 03:50 | 22.30388 | 113.91320 | 37 ft | 17 kts | 251° |
| 2026-05-05 03:50 | 22.30348 | 113.91195 | 37 ft | 18 kts | 251° |
| 2026-05-05 03:50 | 22.30306 | 113.91066 | 37 ft | 19 kts | 251° |
| 2026-05-05 03:51 | 22.30262 | 113.90928 | 37 ft | 20 kts | 251° |
| 2026-05-05 03:51 | 22.30215 | 113.90784 | 37 ft | 21 kts | 251° |
| 2026-05-05 03:51 | 22.30167 | 113.90633 | 37 ft | 22 kts | 251° |
| 2026-05-05 03:51 | 22.30118 | 113.90481 | 37 ft | 22 kts | 251° |
| 2026-05-05 03:52 | 22.30068 | 113.90328 | 37 ft | 22 kts | 251° |
| 2026-05-05 03:52 | 22.30019 | 113.90175 | 37 ft | 22 kts | 250° |
| 2026-05-05 03:52 | 22.29969 | 113.90023 | 37 ft | 22 kts | 250° |
| 2026-05-05 03:52 | 22.29921 | 113.89872 | 37 ft | 22 kts | 251° |
| 2026-05-05 03:53 | 22.29889 | 113.89774 | 37 ft | 11 kts | 248° |
| 2026-05-05 03:53 | 22.29829 | 113.89734 | 37 ft | 11 kts | 168° |
| 2026-05-05 03:53 | 22.29755 | 113.89760 | 37 ft | 11 kts | 161° |
| 2026-05-05 03:53 | 22.29680 | 113.89789 | 34 ft | 12 kts | 161° |
| 2026-05-05 03:54 | 22.29638 | 113.89858 | 34 ft | 12 kts | 76° |
| 2026-05-05 03:54 | 22.29677 | 113.89980 | 35 ft | 37 kts | 71° |
| 2026-05-05 03:54 | 22.29856 | 113.90536 | 35 ft | 120 kts | 71° |
| 2026-05-05 03:54 | 22.30219 | 113.91661 | 38 ft | 196 kts | 71° |
| 2026-05-05 03:55 | 22.30715 | 113.93177 | 541 ft | 224 kts | 71° |
| 2026-05-05 03:55 | 22.31217 | 113.94719 | 2040 ft | 212 kts | 73° |
| 2026-05-05 03:55 | 22.31726 | 113.96310 | 2950 ft | 240 kts | 73° |
| 2026-05-05 03:55 | 22.32288 | 113.98075 | 3762 ft | 258 kts | 71° |
| 2026-05-05 03:56 | 22.32898 | 113.99989 | 4563 ft | 277 kts | 70° |
| 2026-05-05 03:56 | 22.33542 | 114.01986 | 5614 ft | 287 kts | 71° |
| 2026-05-05 03:56 | 22.33923 | 114.04109 | 6549 ft | 293 kts | 97° |
| 2026-05-05 03:56 | 22.33319 | 114.06203 | 7402 ft | 299 kts | 126° |
| 2026-05-05 03:57 | 22.31844 | 114.07867 | 7974 ft | 321 kts | 149° |
| 2026-05-05 03:57 | 22.29690 | 114.08885 | 7979 ft | 356 kts | 173° |
| 2026-05-05 03:57 | 22.27238 | 114.08871 | 8003 ft | 359 kts | 188° |
| 2026-05-05 03:57 | 22.24796 | 114.08665 | 7983 ft | 346 kts | 183° |
| 2026-05-05 03:58 | 22.22446 | 114.08622 | 7980 ft | 331 kts | 182° |
| 2026-05-05 03:58 | 22.20203 | 114.08783 | 7972 ft | 320 kts | 165° |
| 2026-05-05 03:58 | 22.18246 | 114.09856 | 8511 ft | 314 kts | 141° |
| 2026-05-05 03:58 | 22.16804 | 114.11574 | 9440 ft | 309 kts | 126° |
| 2026-05-05 03:59 | 22.15808 | 114.13652 | 9916 ft | 317 kts | 107° |
| 2026-05-05 03:59 | 22.15547 | 114.16030 | 10248 ft | 323 kts | 93° |
| 2026-05-05 03:59 | 22.15447 | 114.18521 | 10435 ft | 342 kts | 95° |
| 2026-05-05 03:59 | 22.15303 | 114.21131 | 10511 ft | 363 kts | 95° |
| 2026-05-05 04:00 | 22.15135 | 114.23912 | 10719 ft | 382 kts | 94° |
| 2026-05-05 04:00 | 22.15199 | 114.26825 | 10931 ft | 399 kts | 78° |
| 2026-05-05 04:00 | 22.15963 | 114.29734 | 11506 ft | 406 kts | 76° |
| 2026-05-05 04:00 | 22.16687 | 114.32665 | 12389 ft | 404 kts | 77° |
| 2026-05-05 04:01 | 22.17343 | 114.35615 | 12912 ft | 407 kts | 75° |
| 2026-05-05 04:01 | 22.18501 | 114.38411 | 13142 ft | 415 kts | 52° |
| 2026-05-05 04:01 | 22.20606 | 114.40527 | 13669 ft | 416 kts | 30° |
| 2026-05-05 04:01 | 22.23242 | 114.41768 | 14222 ft | 413 kts | 12° |
| 2026-05-05 04:02 | 22.26039 | 114.42168 | 14698 ft | 411 kts | 355° |
| 2026-05-05 04:02 | 22.28845 | 114.41721 | 15077 ft | 408 kts | 346° |
| 2026-05-05 04:02 | 22.31655 | 114.41125 | 15481 ft | 414 kts | 346° |
| 2026-05-05 04:02 | 22.34497 | 114.40542 | 15994 ft | 416 kts | 346° |
| 2026-05-05 04:03 | 22.37355 | 114.39980 | 16532 ft | 418 kts | 346° |
| 2026-05-05 04:03 | 22.40228 | 114.39431 | 17109 ft | 421 kts | 346° |
| 2026-05-05 04:03 | 22.43122 | 114.38882 | 17696 ft | 424 kts | 346° |
| 2026-05-05 04:03 | 22.45982 | 114.38131 | 18087 ft | 422 kts | 330° |
| 2026-05-05 04:04 | 22.48430 | 114.36465 | 18544 ft | 414 kts | 312° |
| 2026-05-05 04:04 | 22.50226 | 114.34134 | 19083 ft | 405 kts | 297° |
| 2026-05-05 04:04 | 22.51443 | 114.31429 | 19585 ft | 398 kts | 284° |
| 2026-05-05 04:04 | 22.51996 | 114.28514 | 20009 ft | 396 kts | 276° |
| 2026-05-05 04:05 | 22.52391 | 114.25556 | 20374 ft | 399 kts | 276° |
| 2026-05-05 04:05 | 22.52824 | 114.22582 | 20758 ft | 402 kts | 277° |
| 2026-05-05 04:05 | 22.53290 | 114.19592 | 21198 ft | 404 kts | 278° |
| 2026-05-05 04:05 | 22.53973 | 114.16650 | 21484 ft | 408 kts | 291° |
| 2026-05-05 04:06 | 22.55477 | 114.14013 | 21833 ft | 419 kts | 306° |
| 2026-05-05 04:06 | 22.57521 | 114.11798 | 22304 ft | 425 kts | 317° |
| 2026-05-05 04:06 | 22.60065 | 114.10105 | 22703 ft | 434 kts | 329° |
| 2026-05-05 04:06 | 22.62811 | 114.08725 | 23058 ft | 437 kts | 330° |
| 2026-05-05 04:07 | 22.65596 | 114.07377 | 23407 ft | 440 kts | 330° |
| 2026-05-05 04:07 | 22.68388 | 114.06018 | 23744 ft | 441 kts | 330° |
| 2026-05-05 04:07 | 22.71185 | 114.04632 | 24057 ft | 442 kts | 329° |
| 2026-05-05 04:07 | 22.73980 | 114.03221 | 24364 ft | 444 kts | 329° |
| 2026-05-05 04:08 | 22.76773 | 114.01794 | 24666 ft | 445 kts | 329° |
| 2026-05-05 04:08 | 22.79543 | 114.00372 | 24972 ft | 447 kts | 328° |
| 2026-05-05 04:08 | 22.82352 | 113.98926 | 25291 ft | 448 kts | 328° |
| 2026-05-05 04:08 | 22.85177 | 113.97474 | 25592 ft | 450 kts | 328° |
| 2026-05-05 04:09 | 22.88000 | 113.96024 | 25885 ft | 451 kts | 328° |
| 2026-05-05 04:09 | 22.90846 | 113.94558 | 26168 ft | 453 kts | 328° |
| 2026-05-05 04:09 | 22.93696 | 113.93079 | 26429 ft | 455 kts | 328° |
| 2026-05-05 04:09 | 22.96550 | 113.91591 | 26697 ft | 457 kts | 328° |
| 2026-05-05 04:10 | 22.99420 | 113.90095 | 26970 ft | 458 kts | 328° |
| 2026-05-05 04:10 | 23.02262 | 113.88615 | 27247 ft | 460 kts | 328° |
| 2026-05-05 04:10 | 23.05141 | 113.87107 | 27520 ft | 460 kts | 327° |
| 2026-05-05 04:10 | 23.07909 | 113.85384 | 27764 ft | 457 kts | 321° |
| 2026-05-05 04:11 | 23.10499 | 113.83398 | 28020 ft | 455 kts | 317° |
| 2026-05-05 04:11 | 23.12921 | 113.81208 | 28292 ft | 452 kts | 311° |
| 2026-05-05 04:11 | 23.15181 | 113.78839 | 28566 ft | 451 kts | 310° |
| 2026-05-05 04:11 | 23.17431 | 113.76456 | 28831 ft | 452 kts | 310° |
| 2026-05-05 04:12 | 23.19685 | 113.74069 | 29063 ft | 454 kts | 310° |
| 2026-05-05 04:12 | 23.21954 | 113.71673 | 29250 ft | 455 kts | 310° |
| 2026-05-05 04:12 | 23.24200 | 113.69308 | 29449 ft | 457 kts | 311° |
| 2026-05-05 04:12 | 23.26490 | 113.66904 | 29653 ft | 458 kts | 311° |
| 2026-05-05 04:13 | 23.28784 | 113.64498 | 29846 ft | 459 kts | 311° |
| 2026-05-05 04:13 | 23.31087 | 113.62083 | 30008 ft | 461 kts | 311° |
| 2026-05-05 04:13 | 23.35716 | 113.57225 | 30116 ft | 462 kts | 311° |
| 2026-05-05 04:14 | 23.40320 | 113.52388 | 30125 ft | 459 kts | 310° |
| 2026-05-05 04:14 | 23.44873 | 113.47596 | 30130 ft | 458 kts | 310° |
| 2026-05-05 04:15 | 23.49447 | 113.42777 | 30143 ft | 458 kts | 311° |
| 2026-05-05 04:15 | 23.54022 | 113.37950 | 30139 ft | 457 kts | 310° |
| 2026-05-05 04:16 | 23.58552 | 113.33084 | 30146 ft | 457 kts | 310° |
| 2026-05-05 04:16 | 23.63068 | 113.28198 | 30132 ft | 457 kts | 308° |
| 2026-05-05 04:17 | 23.66881 | 113.22803 | 30138 ft | 450 kts | 299° |
| 2026-05-05 04:17 | 23.69901 | 113.16859 | 30131 ft | 446 kts | 291° |
| 2026-05-05 04:18 | 23.72398 | 113.10658 | 30129 ft | 447 kts | 291° |
| 2026-05-05 04:18 | 23.74938 | 113.04465 | 30134 ft | 447 kts | 292° |
| 2026-05-05 04:19 | 23.76442 | 113.01551 | 30123 ft | 450 kts | 304° |
| 2026-05-05 04:19 | 23.78636 | 112.99082 | 30125 ft | 459 kts | 315° |
| 2026-05-05 04:19 | 23.84239 | 112.95537 | 30126 ft | 480 kts | 336° |
| 2026-05-05 04:20 | 23.90736 | 112.93659 | 30138 ft | 482 kts | 337° |
| 2026-05-05 04:20 | 23.97147 | 112.91560 | 30127 ft | 479 kts | 336° |
| 2026-05-05 04:21 | 24.03469 | 112.89437 | 30127 ft | 478 kts | 336° |
| 2026-05-05 04:21 | 24.09821 | 112.87321 | 30128 ft | 476 kts | 336° |
| 2026-05-05 04:22 | 24.16154 | 112.85219 | 30163 ft | 475 kts | 337° |
| 2026-05-05 04:22 | 24.22467 | 112.83128 | 30131 ft | 473 kts | 336° |
| 2026-05-05 04:23 | 24.28758 | 112.81034 | 30140 ft | 473 kts | 336° |
| 2026-05-05 04:23 | 24.35017 | 112.78956 | 30132 ft | 473 kts | 336° |
| 2026-05-05 04:24 | 24.41307 | 112.76844 | 30127 ft | 469 kts | 334° |
| 2026-05-05 04:24 | 24.44183 | 112.75297 | 30128 ft | 455 kts | 319° |
| 2026-05-05 04:25 | 24.48172 | 112.70124 | 30145 ft | 446 kts | 297° |
| 2026-05-05 04:25 | 24.50238 | 112.63805 | 30122 ft | 446 kts | 277° |
| 2026-05-05 04:26 | 24.50824 | 112.57001 | 30160 ft | 449 kts | 276° |
| 2026-05-05 04:26 | 24.51394 | 112.50133 | 30137 ft | 453 kts | 276° |
| 2026-05-05 04:27 | 24.52026 | 112.43276 | 30095 ft | 449 kts | 276° |
| 2026-05-05 04:27 | 24.52669 | 112.36508 | 30128 ft | 449 kts | 276° |
| 2026-05-05 04:28 | 24.53323 | 112.29665 | 30105 ft | 451 kts | 277° |
| 2026-05-05 04:28 | 24.53976 | 112.22824 | 30127 ft | 451 kts | 277° |
| 2026-05-05 04:29 | 24.54624 | 112.15984 | 30127 ft | 450 kts | 277° |
| 2026-05-05 04:29 | 24.55267 | 112.09197 | 30109 ft | 450 kts | 277° |
| 2026-05-05 04:30 | 24.55909 | 112.02363 | 30122 ft | 450 kts | 277° |
| 2026-05-05 04:30 | 24.56547 | 111.95533 | 30122 ft | 450 kts | 277° |
| 2026-05-05 04:31 | 24.57184 | 111.88700 | 30120 ft | 450 kts | 277° |
| 2026-05-05 04:31 | 24.57810 | 111.81907 | 30129 ft | 450 kts | 277° |
| 2026-05-05 04:32 | 24.58440 | 111.75057 | 30113 ft | 451 kts | 277° |
| 2026-05-05 04:32 | 24.59070 | 111.68191 | 30127 ft | 451 kts | 276° |
| 2026-05-05 04:33 | 24.59696 | 111.61324 | 30122 ft | 452 kts | 276° |
| 2026-05-05 04:33 | 24.60312 | 111.54503 | 30115 ft | 451 kts | 276° |
| 2026-05-05 04:34 | 24.60931 | 111.47662 | 30115 ft | 451 kts | 276° |
| 2026-05-05 04:34 | 24.61544 | 111.40808 | 30118 ft | 451 kts | 276° |
| 2026-05-05 04:35 | 24.62159 | 111.33942 | 30118 ft | 451 kts | 276° |
| 2026-05-05 04:35 | 24.62764 | 111.27127 | 30120 ft | 451 kts | 276° |
| 2026-05-05 04:36 | 24.63361 | 111.20268 | 30115 ft | 451 kts | 276° |
| 2026-05-05 04:36 | 24.63954 | 111.13415 | 30116 ft | 451 kts | 276° |
| 2026-05-05 04:37 | 24.64545 | 111.06550 | 30121 ft | 452 kts | 276° |
| 2026-05-05 04:37 | 24.65137 | 110.99658 | 30125 ft | 453 kts | 276° |
| 2026-05-05 04:38 | 24.65725 | 110.92796 | 30125 ft | 454 kts | 276° |
| 2026-05-05 04:38 | 24.66309 | 110.85887 | 30113 ft | 455 kts | 276° |
| 2026-05-05 04:39 | 24.67690 | 110.79185 | 30119 ft | 452 kts | 294° |
| 2026-05-05 04:39 | 24.71019 | 110.73311 | 30111 ft | 457 kts | 310° |